Time;durP1;ratioP1;P1;durP2;ratioP2;P2;SDS_P1;SDS_P2;PMS_P1;PMS_P2;Temp;Humidity;BMP_temperature;BMP_pressure;BME280_temperature;BME280_humidity;BME280_pressure;Samples;Min_cycle;Max_cycle;Signal;HPM_P1;HPM_P2
2021/03/01 00:01:06;;;;;;;38.03;16.30;;;;;;;;;;5116749;27;20725;-71
2021/03/01 00:03:33;;;;;;;34.50;17.33;;;;;;;;;;5116541;27;20583;-71
2021/03/01 00:06:01;;;;;;;36.60;14.43;;;;;;;;;;5115875;27;20465;-71
2021/03/01 00:08:28;;;;;;;39.27;15.43;;;;;;;;;;5116001;27;20452;-71
2021/03/01 00:10:57;;;;;;;39.77;14.20;;;;;;;;;;5116582;27;20738;-71
2021/03/01 00:13:25;;;;;;;36.20;13.30;;;;;;;;;;5115146;27;20818;-71
2021/03/01 00:15:53;;;;;;;33.93;14.07;;;;;;;;;;5116095;27;20743;-71
2021/03/01 00:18:20;;;;;;;25.93;11.80;;;;;;;;;;5115559;27;20454;-71
2021/03/01 00:20:48;;;;;;;33.20;12.20;;;;;;;;;;5116828;27;20460;-71
2021/03/01 00:23:15;;;;;;;32.97;13.50;;;;;;;;;;5115869;28;20491;-71
2021/03/01 00:25:43;;;;;;;31.13;14.37;;;;;;;;;;5115892;27;20459;-71
2021/03/01 00:28:11;;;;;;;33.00;10.60;;;;;;;;;;5115949;27;20461;-71
2021/03/01 00:30:39;;;;;;;30.43;12.10;;;;;;;;;;5118559;27;20472;-72
2021/03/01 00:33:06;;;;;;;30.10;11.33;;;;;;;;;;5118453;27;20458;-71
2021/03/01 00:35:34;;;;;;;36.60;12.30;;;;;;;;;;5118344;27;20456;-71
2021/03/01 00:38:01;;;;;;;31.07;12.47;;;;;;;;;;5118928;27;20444;-71
2021/03/01 00:40:30;;;;;;;30.50;12.20;;;;;;;;;;5119261;27;20620;-71
2021/03/01 00:42:57;;;;;;;27.10;12.13;;;;;;;;;;5119795;27;20487;-71
2021/03/01 00:45:26;;;;;;;20.80;10.30;;;;;;;;;;5118105;27;20460;-71
2021/03/01 00:47:53;;;;;;;24.13;11.57;;;;;;;;;;5120181;27;20839;-71
2021/03/01 00:50:21;;;;;;;27.20;13.50;;;;;;;;;;5119668;27;20464;-71
2021/03/01 00:52:48;;;;;;;27.27;12.63;;;;;;;;;;5118614;27;20587;-71
2021/03/01 00:55:16;;;;;;;26.87;12.00;;;;;;;;;;5119530;27;20456;-71
2021/03/01 00:57:44;;;;;;;28.03;10.73;;;;;;;;;;5118419;27;20949;-72
2021/03/01 01:00:13;;;;;;;25.77;10.00;;;;;;;;;;5118719;27;20461;-71
2021/03/01 01:02:41;;;;;;;22.17;10.40;;;;;;;;;;5119785;27;20749;-71
2021/03/01 01:05:09;;;;;;;26.60;12.37;;;;;;;;;;5118738;27;20466;-71
2021/03/01 01:07:37;;;;;;;28.83;12.13;;;;;;;;;;5119485;27;20450;-71
2021/03/01 01:10:06;;;;;;;29.17;12.70;;;;;;;;;;5119758;27;20468;-71
2021/03/01 01:12:33;;;;;;;25.90;11.40;;;;;;;;;;5118877;27;20454;-71
2021/03/01 01:15:01;;;;;;;22.77;10.13;;;;;;;;;;5119814;27;20453;-71
2021/03/01 01:17:29;;;;;;;22.27;12.00;;;;;;;;;;5119731;27;20491;-71
2021/03/01 01:19:57;;;;;;;24.77;11.03;;;;;;;;;;5118523;27;20486;-71
2021/03/01 01:22:25;;;;;;;24.50;10.20;;;;;;;;;;5119286;27;20487;-72
2021/03/01 01:24:52;;;;;;;24.07;11.27;;;;;;;;;;5118695;27;20452;-71
2021/03/01 01:27:20;;;;;;;27.67;10.37;;;;;;;;;;5119517;27;20452;-71
2021/03/01 01:29:47;;;;;;;25.00;10.80;;;;;;;;;;5118936;27;20484;-71
2021/03/01 01:32:16;;;;;;;23.27;12.07;;;;;;;;;;5118075;27;20454;-71
2021/03/01 01:34:43;;;;;;;31.97;12.20;;;;;;;;;;5119165;27;20730;-70
2021/03/01 01:37:12;;;;;;;26.20;12.70;;;;;;;;;;5118962;27;20456;-71
2021/03/01 01:39:39;;;;;;;26.57;12.40;;;;;;;;;;5118270;27;20760;-71
2021/03/01 01:42:07;;;;;;;21.60;11.77;;;;;;;;;;5117996;27;20462;-71
2021/03/01 01:44:34;;;;;;;25.20;11.90;;;;;;;;;;5117619;27;20745;-71
2021/03/01 01:47:02;;;;;;;21.47;11.53;;;;;;;;;;5124102;27;20454;-71
2021/03/01 01:49:29;;;;;;;22.20;10.57;;;;;;;;;;5139882;27;20481;-71
2021/03/01 01:51:57;;;;;;;30.87;12.63;;;;;;;;;;5139371;27;20479;-71
2021/03/01 01:54:28;;;;;;;21.00;8.60;;;;;;;;;;5138743;27;20454;-71
2021/03/01 01:56:56;;;;;;;24.43;10.83;;;;;;;;;;5139035;27;20452;-71
2021/03/01 01:59:25;;;;;;;20.73;9.40;;;;;;;;;;5139465;27;20553;-71
2021/03/01 02:01:53;;;;;;;22.17;9.40;;;;;;;;;;5138850;27;20460;-71
2021/03/01 02:04:23;;;;;;;24.00;9.70;;;;;;;;;;5139783;27;20483;-71
2021/03/01 02:06:59;;;;;;;20.40;9.67;;;;;;;;;;5138714;27;20478;-72
2021/03/01 02:09:33;;;;;;;21.07;10.77;;;;;;;;;;5138786;27;20484;-71
2021/03/01 02:12:10;;;;;;;22.10;10.00;;;;;;;;;;5139008;27;20471;-71
2021/03/01 02:14:43;;;;;;;26.57;11.53;;;;;;;;;;5138543;27;20463;-71
2021/03/01 02:17:10;;;;;;;22.10;11.00;;;;;;;;;;5139150;27;20537;-71
2021/03/01 02:19:38;;;;;;;26.27;9.43;;;;;;;;;;5139812;27;20458;-71
2021/03/01 02:22:07;;;;;;;18.60;9.13;;;;;;;;;;5138060;27;20456;-71
2021/03/01 02:24:39;;;;;;;27.40;10.77;;;;;;;;;;5140244;27;20631;-71
2021/03/01 02:27:07;;;;;;;24.00;9.77;;;;;;;;;;5140060;27;20535;-71
2021/03/01 02:29:36;;;;;;;21.87;9.83;;;;;;;;;;5137914;27;20472;-71
2021/03/01 02:32:04;;;;;;;24.37;10.77;;;;;;;;;;5138887;27;20523;-71
2021/03/01 02:34:33;;;;;;;19.07;10.57;;;;;;;;;;5137773;27;20818;-71
2021/03/01 02:37:02;;;;;;;24.77;12.10;;;;;;;;;;5139425;27;20445;-71
2021/03/01 02:39:32;;;;;;;24.10;9.20;;;;;;;;;;5137663;27;20461;-71
2021/03/01 02:42:00;;;;;;;21.00;10.50;;;;;;;;;;5136939;27;20454;-71
2021/03/01 02:44:28;;;;;;;25.27;11.40;;;;;;;;;;5137584;27;20694;-71
2021/03/01 02:46:55;;;;;;;22.00;10.63;;;;;;;;;;5137477;27;20456;-71
2021/03/01 02:49:23;;;;;;;22.80;10.77;;;;;;;;;;5137671;27;20458;-71
2021/03/01 02:51:51;;;;;;;23.50;10.83;;;;;;;;;;5136185;27;20740;-71
2021/03/01 02:54:20;;;;;;;24.73;11.13;;;;;;;;;;5137396;27;20461;-71
2021/03/01 02:56:50;;;;;;;31.53;11.40;;;;;;;;;;5137957;27;20445;-71
2021/03/01 02:59:19;;;;;;;26.27;10.23;;;;;;;;;;5137517;27;20475;-71
2021/03/01 03:02:10;;;;;;;28.10;12.40;;;;;;;;;;5137138;27;20439;-71
2021/03/01 03:04:38;;;;;;;24.87;12.33;;;;;;;;;;5137952;27;20454;-71
2021/03/01 03:07:06;;;;;;;23.60;10.97;;;;;;;;;;5137843;27;20875;-71
2021/03/01 03:09:34;;;;;;;25.00;11.87;;;;;;;;;;5137066;27;20863;-71
2021/03/01 03:12:02;;;;;;;28.23;11.27;;;;;;;;;;5137539;27;20453;-71
2021/03/01 03:14:31;;;;;;;32.40;12.00;;;;;;;;;;5138071;27;20468;-71
2021/03/01 03:17:00;;;;;;;24.93;11.80;;;;;;;;;;5137375;27;20476;-71
2021/03/01 03:19:27;;;;;;;28.43;12.80;;;;;;;;;;5138030;27;20507;-71
2021/03/01 03:21:55;;;;;;;25.83;11.07;;;;;;;;;;5136794;27;20736;-70
2021/03/01 03:24:25;;;;;;;22.33;11.53;;;;;;;;;;5136875;27;20546;-71
2021/03/01 03:26:52;;;;;;;27.13;11.40;;;;;;;;;;5137398;27;20521;-71
2021/03/01 03:29:20;;;;;;;21.83;9.03;;;;;;;;;;5137297;27;20441;-71
2021/03/01 03:31:47;;;;;;;13.83;7.30;;;;;;;;;;5136983;27;20556;-71
2021/03/01 03:34:15;;;;;;;14.80;7.60;;;;;;;;;;5137592;27;21087;-71
2021/03/01 03:36:47;;;;;;;14.13;7.83;;;;;;;;;;5137174;27;20584;-71
2021/03/01 03:39:16;;;;;;;19.27;9.77;;;;;;;;;;5137130;27;20803;-71
2021/03/01 03:41:44;;;;;;;24.97;10.70;;;;;;;;;;5136516;27;20556;-71
2021/03/01 03:44:12;;;;;;;20.70;9.17;;;;;;;;;;5137164;27;20507;-71
2021/03/01 03:46:41;;;;;;;23.13;9.30;;;;;;;;;;5137489;27;20470;-71
2021/03/01 03:49:09;;;;;;;15.13;7.97;;;;;;;;;;5136836;27;20772;-71
2021/03/01 03:51:37;;;;;;;20.43;8.90;;;;;;;;;;5136794;27;20994;-71
2021/03/01 03:54:09;;;;;;;17.00;6.83;;;;;;;;;;5136771;27;20513;-71
2021/03/01 03:56:37;;;;;;;21.10;9.17;;;;;;;;;;5136540;27;20556;-71
2021/03/01 03:59:07;;;;;;;24.60;12.07;;;;;;;;;;5136653;27;20446;-71
2021/03/01 04:01:35;;;;;;;34.37;13.07;;;;;;;;;;5134509;27;20574;-71
2021/03/01 04:04:05;;;;;;;28.97;13.00;;;;;;;;;;5137352;27;20868;-71
2021/03/01 04:06:32;;;;;;;29.53;13.97;;;;;;;;;;5141664;27;20462;-71
2021/03/01 04:09:01;;;;;;;23.93;11.13;;;;;;;;;;5141511;27;20442;-72
2021/03/01 04:11:28;;;;;;;23.27;9.57;;;;;;;;;;5131510;27;20559;-71
2021/03/01 04:13:56;;;;;;;23.20;9.73;;;;;;;;;;5141528;27;20440;-71
2021/03/01 04:16:24;;;;;;;21.97;9.10;;;;;;;;;;5127206;27;20463;-71
2021/03/01 04:18:54;;;;;;;18.90;8.93;;;;;;;;;;5120619;27;20538;-71
2021/03/01 04:21:23;;;;;;;17.40;9.57;;;;;;;;;;5121208;27;20462;-71
2021/03/01 04:23:52;;;;;;;19.20;10.23;;;;;;;;;;5120224;27;20553;-71
2021/03/01 04:26:20;;;;;;;12.50;7.60;;;;;;;;;;5119292;27;20504;-71
2021/03/01 04:28:48;;;;;;;11.50;6.77;;;;;;;;;;5120155;27;20503;-71
2021/03/01 04:31:17;;;;;;;12.20;7.50;;;;;;;;;;5118826;27;20448;-71
2021/03/01 04:33:45;;;;;;;16.53;8.20;;;;;;;;;;5119292;27;21006;-71
2021/03/01 04:36:12;;;;;;;14.87;7.43;;;;;;;;;;5119895;27;20579;-71
2021/03/01 04:38:41;;;;;;;13.50;7.80;;;;;;;;;;5119088;27;20455;-72
2021/03/01 04:41:09;;;;;;;20.07;8.97;;;;;;;;;;5120020;27;20469;-71
2021/03/01 04:43:45;;;;;;;18.07;8.67;;;;;;;;;;5118758;27;20479;-71
2021/03/01 04:46:14;;;;;;;20.80;9.77;;;;;;;;;;5118562;27;20452;-71
2021/03/01 04:48:46;;;;;;;21.30;11.10;;;;;;;;;;5119353;27;20946;-71
2021/03/01 04:51:14;;;;;;;22.40;9.80;;;;;;;;;;5118122;27;20461;-71
2021/03/01 04:53:43;;;;;;;18.70;10.17;;;;;;;;;;5119295;27;21105;-71
2021/03/01 04:56:11;;;;;;;23.63;10.97;;;;;;;;;;5120328;27;20466;-71
2021/03/01 04:58:40;;;;;;;18.50;10.30;;;;;;;;;;5118411;27;20485;-72
2021/03/01 05:01:09;;;;;;;21.83;9.53;;;;;;;;;;5119651;27;20784;-71
2021/03/01 05:03:39;;;;;;;21.77;10.63;;;;;;;;;;5118641;27;20481;-71
2021/03/01 05:06:06;;;;;;;20.73;10.83;;;;;;;;;;5118220;27;20453;-71
2021/03/01 05:08:35;;;;;;;21.00;10.73;;;;;;;;;;5119487;27;20448;-71
2021/03/01 05:11:05;;;;;;;16.57;9.40;;;;;;;;;;5118536;27;20482;-71
2021/03/01 05:13:33;;;;;;;17.67;9.67;;;;;;;;;;5119937;27;20444;-71
2021/03/01 05:16:01;;;;;;;19.37;11.10;;;;;;;;;;5119003;27;20460;-71
2021/03/01 05:18:29;;;;;;;20.07;8.93;;;;;;;;;;5118587;27;20459;-71
2021/03/01 05:20:57;;;;;;;19.30;9.50;;;;;;;;;;5122772;27;20551;-71
2021/03/01 05:23:24;;;;;;;19.17;10.87;;;;;;;;;;5119185;27;20646;-71
2021/03/01 05:25:51;;;;;;;21.33;10.00;;;;;;;;;;5117818;27;20474;-71
2021/03/01 05:28:20;;;;;;;19.70;11.47;;;;;;;;;;5130769;27;20456;-71
2021/03/01 05:30:48;;;;;;;19.77;10.87;;;;;;;;;;5119592;27;20608;-71
2021/03/01 05:33:16;;;;;;;20.83;10.43;;;;;;;;;;5117744;27;20976;-71
2021/03/01 05:35:43;;;;;;;22.60;12.63;;;;;;;;;;5118002;27;20457;-71
2021/03/01 05:38:10;;;;;;;28.10;12.67;;;;;;;;;;5119330;27;20787;-71
2021/03/01 05:40:38;;;;;;;25.20;13.40;;;;;;;;;;5118857;27;20515;-71
2021/03/01 05:43:06;;;;;;;29.17;13.90;;;;;;;;;;5119056;27;20862;-71
2021/03/01 05:45:35;;;;;;;21.43;12.73;;;;;;;;;;5127272;27;20453;-71
2021/03/01 05:48:02;;;;;;;27.93;14.30;;;;;;;;;;5138890;27;20516;-71
2021/03/01 05:50:30;;;;;;;24.83;11.50;;;;;;;;;;5138332;27;20454;-71
2021/03/01 05:52:59;;;;;;;27.20;13.90;;;;;;;;;;5136452;27;20768;-71
2021/03/01 05:55:27;;;;;;;20.30;12.30;;;;;;;;;;5137448;27;20459;-71
2021/03/01 05:57:56;;;;;;;28.30;12.87;;;;;;;;;;5137438;27;20545;-71
2021/03/01 06:00:23;;;;;;;24.73;12.53;;;;;;;;;;5138100;27;20457;-71
2021/03/01 06:02:53;;;;;;;23.27;11.87;;;;;;;;;;5137380;27;20724;-71
2021/03/01 06:05:21;;;;;;;19.37;10.60;;;;;;;;;;5137496;27;20752;-70
2021/03/01 06:07:49;;;;;;;23.03;11.57;;;;;;;;;;5137540;27;20455;-70
2021/03/01 06:10:19;;;;;;;23.53;11.93;;;;;;;;;;5136664;27;20448;-71
2021/03/01 06:12:50;;;;;;;23.13;11.50;;;;;;;;;;5137677;27;20480;-71
2021/03/01 06:15:18;;;;;;;21.23;11.70;;;;;;;;;;5139105;27;20902;-71
2021/03/01 06:18:04;;;;;;;17.37;10.70;;;;;;;;;;5137350;27;20528;-71
2021/03/01 06:20:34;;;;;;;21.70;12.37;;;;;;;;;;5137358;27;20465;-71
2021/03/01 06:23:04;;;;;;;29.63;11.90;;;;;;;;;;5137352;27;20475;-71
2021/03/01 06:25:32;;;;;;;27.27;13.50;;;;;;;;;;5137657;27;20825;-72
2021/03/01 06:28:01;;;;;;;28.37;12.57;;;;;;;;;;5137904;27;20452;-72
2021/03/01 06:30:30;;;;;;;24.13;12.07;;;;;;;;;;5136872;27;20478;-71
2021/03/01 06:33:09;;;;;;;26.40;14.30;;;;;;;;;;5136453;27;20456;-72
2021/03/01 06:35:43;;;;;;;22.97;13.23;;;;;;;;;;5138172;27;20866;-71
2021/03/01 06:38:14;;;;;;;24.53;12.47;;;;;;;;;;5137817;27;20801;-71
2021/03/01 06:40:42;;;;;;;27.83;13.77;;;;;;;;;;5136137;27;20470;-71
2021/03/01 06:43:14;;;;;;;25.70;13.60;;;;;;;;;;5134370;27;20483;-71
2021/03/01 06:45:42;;;;;;;26.07;12.13;;;;;;;;;;5131266;27;20515;-72
2021/03/01 06:48:16;;;;;;;24.47;13.30;;;;;;;;;;5116578;27;20441;-72
2021/03/01 06:50:45;;;;;;;31.53;13.90;;;;;;;;;;5115787;27;20462;-72
2021/03/01 06:53:16;;;;;;;28.43;14.10;;;;;;;;;;5115899;27;20447;-72
2021/03/01 06:55:59;;;;;;;23.87;12.57;;;;;;;;;;5133540;27;20492;-72
2021/03/01 06:58:29;;;;;;;24.60;12.17;;;;;;;;;;5136768;27;20451;-71
2021/03/01 07:01:00;;;;;;;22.67;12.63;;;;;;;;;;5135750;27;20458;-71
2021/03/01 07:03:29;;;;;;;24.40;13.70;;;;;;;;;;5135071;27;20818;-71
2021/03/01 07:05:56;;;;;;;22.73;11.63;;;;;;;;;;5136485;27;20911;-71
2021/03/01 07:08:40;;;;;;;27.90;13.20;;;;;;;;;;5135174;27;20437;-71
2021/03/01 07:11:21;;;;;;;29.97;16.30;;;;;;;;;;5136002;27;20470;-71
2021/03/01 07:13:52;;;;;;;27.87;14.50;;;;;;;;;;5135620;27;20542;-73
2021/03/01 07:16:20;;;;;;;24.83;13.03;;;;;;;;;;5134942;27;20462;-71
2021/03/01 07:18:48;;;;;;;31.83;15.67;;;;;;;;;;5137289;27;20442;-71
2021/03/01 07:21:15;;;;;;;29.90;14.30;;;;;;;;;;5135783;27;20449;-71
2021/03/01 07:23:45;;;;;;;27.43;12.87;;;;;;;;;;5131038;27;20486;-72
2021/03/01 07:26:14;;;;;;;30.70;16.90;;;;;;;;;;5117481;27;20539;-71
2021/03/01 07:28:43;;;;;;;27.40;13.87;;;;;;;;;;5115073;27;20469;-72
2021/03/01 07:31:11;;;;;;;26.07;13.30;;;;;;;;;;5117276;27;20494;-71
2021/03/01 07:33:39;;;;;;;24.73;13.53;;;;;;;;;;5116270;27;20458;-71
2021/03/01 07:36:08;;;;;;;31.83;16.00;;;;;;;;;;5116263;27;21040;-71
2021/03/01 07:38:35;;;;;;;28.33;15.37;;;;;;;;;;5138323;27;21044;-72
2021/03/01 07:41:04;;;;;;;29.23;14.93;;;;;;;;;;5125195;27;20462;-72
2021/03/01 07:43:31;;;;;;;32.10;14.67;;;;;;;;;;5119587;27;20486;-71
2021/03/01 07:46:02;;;;;;;28.87;14.37;;;;;;;;;;5120485;27;20490;-71
2021/03/01 07:48:39;;;;;;;27.37;14.97;;;;;;;;;;5119050;27;20465;-72
2021/03/01 07:51:12;;;;;;;25.43;15.20;;;;;;;;;;5119803;27;20438;-71
2021/03/01 07:54:00;;;;;;;30.33;14.23;;;;;;;;;;5117604;27;20577;-71
2021/03/01 07:56:48;;;;;;;34.37;15.53;;;;;;;;;;5116977;27;20702;-71
2021/03/01 07:59:39;;;;;;;25.10;13.77;;;;;;;;;;5118619;27;20657;-71
2021/03/01 08:02:24;;;;;;;29.20;13.83;;;;;;;;;;5103178;28;20485;-72
2021/03/01 08:04:52;;;;;;;29.67;15.70;;;;;;;;;;5122506;27;20891;-72
2021/03/01 08:07:34;;;;;;;30.50;14.80;;;;;;;;;;5119205;27;20516;-72
2021/03/01 08:10:02;;;;;;;27.77;15.63;;;;;;;;;;5116567;27;20447;-71
2021/03/01 08:12:48;;;;;;;32.90;18.27;;;;;;;;;;5117920;27;20906;-73
2021/03/01 08:15:20;;;;;;;31.30;13.73;;;;;;;;;;5118265;27;20460;-71
2021/03/01 08:17:50;;;;;;;32.60;14.60;;;;;;;;;;5118869;27;20465;-72
2021/03/01 08:20:31;;;;;;;29.77;14.20;;;;;;;;;;5117237;27;20454;-71
2021/03/01 08:23:28;;;;;;;26.07;14.27;;;;;;;;;;5117964;27;20816;-71
2021/03/01 08:26:00;;;;;;;40.07;19.37;;;;;;;;;;5118458;27;20539;-72
2021/03/01 08:29:08;;;;;;;31.43;16.77;;;;;;;;;;5119719;27;20452;-72
2021/03/01 08:31:39;;;;;;;31.87;16.93;;;;;;;;;;5138405;27;20442;-72
2021/03/01 08:34:41;;;;;;;31.43;16.53;;;;;;;;;;5138829;27;20512;-71
2021/03/01 08:37:09;;;;;;;29.87;13.83;;;;;;;;;;5134384;27;20455;-72
2021/03/01 08:39:57;;;;;;;27.97;15.17;;;;;;;;;;5119000;27;20447;-71
2021/03/01 08:42:42;;;;;;;31.00;14.37;;;;;;;;;;5118595;27;20522;-72
2021/03/01 08:45:15;;;;;;;32.87;17.90;;;;;;;;;;5126004;27;20735;-71
2021/03/01 08:47:49;;;;;;;28.80;13.57;;;;;;;;;;5120638;27;21106;-70
2021/03/01 08:50:31;;;;;;;26.10;13.83;;;;;;;;;;5117277;27;20499;-72
2021/03/01 08:52:59;;;;;;;28.30;15.13;;;;;;;;;;5116649;27;20466;-72
2021/03/01 08:55:27;;;;;;;30.27;14.90;;;;;;;;;;5118677;27;20665;-72
2021/03/01 08:57:55;;;;;;;26.30;14.57;;;;;;;;;;5116696;27;20671;-71
2021/03/01 09:00:35;;;;;;;26.10;14.03;;;;;;;;;;5117914;27;20476;-72
2021/03/01 09:03:11;;;;;;;30.43;14.67;;;;;;;;;;5114980;27;20639;-71
2021/03/01 09:05:40;;;;;;;23.60;14.23;;;;;;;;;;5117424;27;20536;-72
2021/03/01 09:08:08;;;;;;;32.33;15.60;;;;;;;;;;5119974;27;20482;-72
2021/03/01 09:10:39;;;;;;;20.30;10.93;;;;;;;;;;5127081;27;20539;-71
2021/03/01 09:13:09;;;;;;;26.80;13.33;;;;;;;;;;5137015;27;20475;-70
2021/03/01 09:15:38;;;;;;;26.47;14.00;;;;;;;;;;5117856;27;20522;-71
2021/03/01 09:18:15;;;;;;;23.73;12.43;;;;;;;;;;5117079;27;20517;-71
2021/03/01 09:20:58;;;;;;;28.03;12.87;;;;;;;;;;5115556;27;20461;-72
2021/03/01 09:23:43;;;;;;;23.40;13.90;;;;;;;;;;5116844;27;20491;-71
2021/03/01 09:26:23;;;;;;;18.70;10.47;;;;;;;;;;5116808;27;20568;-70
2021/03/01 09:29:06;;;;;;;21.83;11.50;;;;;;;;;;5116885;27;20714;-72
2021/03/01 09:31:39;;;;;;;24.90;12.03;;;;;;;;;;5116260;27;20480;-71
2021/03/01 09:34:07;;;;;;;20.10;10.80;;;;;;;;;;5117836;27;20506;-72
2021/03/01 09:36:35;;;;;;;18.67;10.73;;;;;;;;;;5117269;27;20508;-71
2021/03/01 09:39:03;;;;;;;19.13;11.73;;;;;;;;;;5146441;27;20518;-70
2021/03/01 09:41:35;;;;;;;20.53;11.47;;;;;;;;;;5126420;27;20432;-71
2021/03/01 09:44:03;;;;;;;21.90;11.70;;;;;;;;;;5139240;27;20612;-72
2021/03/01 09:46:30;;;;;;;17.90;9.73;;;;;;;;;;5129862;27;20495;-70
2021/03/01 09:48:59;;;;;;;16.93;11.10;;;;;;;;;;5137869;27;20556;-70
2021/03/01 09:51:28;;;;;;;21.10;9.40;;;;;;;;;;5121813;27;20520;-70
2021/03/01 09:53:56;;;;;;;14.73;9.87;;;;;;;;;;5128426;27;20461;-70
2021/03/01 09:56:25;;;;;;;17.50;9.00;;;;;;;;;;5126968;27;20467;-71
2021/03/01 09:58:52;;;;;;;19.70;11.50;;;;;;;;;;5121276;27;20470;-71
2021/03/01 10:01:20;;;;;;;21.17;10.20;;;;;;;;;;5121989;27;20768;-71
2021/03/01 10:03:47;;;;;;;20.50;9.57;;;;;;;;;;5126981;27;20516;-71
2021/03/01 10:06:22;;;;;;;20.17;11.80;;;;;;;;;;5120112;27;20560;-71
2021/03/01 10:08:52;;;;;;;19.17;9.10;;;;;;;;;;5123613;27;20456;-71
2021/03/01 10:11:25;;;;;;;17.03;10.00;;;;;;;;;;5116427;27;20476;-71
2021/03/01 10:13:52;;;;;;;14.73;8.00;;;;;;;;;;5116558;27;20551;-71
2021/03/01 10:16:30;;;;;;;14.37;8.47;;;;;;;;;;5129359;27;20515;-70
2021/03/01 10:18:57;;;;;;;18.97;9.50;;;;;;;;;;5113478;27;20530;-70
2021/03/01 10:21:34;;;;;;;19.80;9.40;;;;;;;;;;5114561;27;20471;-70
2021/03/01 10:24:03;;;;;;;15.70;6.73;;;;;;;;;;5113744;27;20893;-71
2021/03/01 10:26:32;;;;;;;15.70;9.27;;;;;;;;;;5113652;27;20453;-72
2021/03/01 10:29:00;;;;;;;14.70;8.37;;;;;;;;;;5113106;27;20452;-72
2021/03/01 10:31:32;;;;;;;22.77;7.93;;;;;;;;;;5130233;27;20819;-72
2021/03/01 10:34:00;;;;;;;16.17;9.20;;;;;;;;;;5134932;27;20545;-71
2021/03/01 10:36:29;;;;;;;14.40;7.50;;;;;;;;;;5116058;27;20462;-72
2021/03/01 10:39:08;;;;;;;13.43;6.90;;;;;;;;;;5127447;27;20510;-71
2021/03/01 10:41:44;;;;;;;16.17;7.63;;;;;;;;;;5135108;27;20496;-72
2021/03/01 10:44:14;;;;;;;17.50;8.23;;;;;;;;;;5135482;27;20669;-71
2021/03/01 10:46:45;;;;;;;15.83;8.60;;;;;;;;;;5121510;27;20481;-72
2021/03/01 10:49:30;;;;;;;13.83;7.17;;;;;;;;;;5115320;27;21085;-72
2021/03/01 10:51:58;;;;;;;15.00;7.57;;;;;;;;;;5115157;27;20473;-71
2021/03/01 10:54:27;;;;;;;14.30;7.30;;;;;;;;;;5115179;27;20447;-72
2021/03/01 10:56:56;;;;;;;17.27;6.90;;;;;;;;;;5114648;27;20527;-72
2021/03/01 10:59:24;;;;;;;11.63;7.80;;;;;;;;;;5114503;27;20444;-71
2021/03/01 11:01:52;;;;;;;12.23;7.50;;;;;;;;;;5114719;27;20465;-71
2021/03/01 11:04:19;;;;;;;16.07;7.87;;;;;;;;;;5115590;27;20479;-72
2021/03/01 11:06:46;;;;;;;10.67;7.10;;;;;;;;;;5120845;27;20612;-72
2021/03/01 11:09:16;;;;;;;13.00;8.43;;;;;;;;;;5134378;27;20438;-72
2021/03/01 11:11:44;;;;;;;12.50;6.37;;;;;;;;;;5136196;27;20453;-72
2021/03/01 11:14:12;;;;;;;14.87;6.40;;;;;;;;;;5122654;27;20553;-71
2021/03/01 11:16:40;;;;;;;12.70;8.07;;;;;;;;;;5136162;27;20461;-72
2021/03/01 11:19:11;;;;;;;18.23;8.90;;;;;;;;;;5135875;27;20441;-71
2021/03/01 11:21:38;;;;;;;14.60;9.50;;;;;;;;;;5135950;27;20470;-72
2021/03/01 11:24:06;;;;;;;14.70;7.67;;;;;;;;;;5134680;27;20489;-72
2021/03/01 11:26:33;;;;;;;11.50;7.20;;;;;;;;;;5122388;27;20612;-71
2021/03/01 11:29:01;;;;;;;13.50;6.80;;;;;;;;;;5114132;27;20476;-71
2021/03/01 11:31:31;;;;;;;12.90;6.40;;;;;;;;;;5114916;27;20459;-71
2021/03/01 11:33:58;;;;;;;21.00;10.23;;;;;;;;;;5118732;27;20443;-71
2021/03/01 11:36:26;;;;;;;10.90;7.37;;;;;;;;;;5135533;27;20462;-71
2021/03/01 11:38:57;;;;;;;17.83;8.03;;;;;;;;;;5125390;27;20552;-71
2021/03/01 11:41:27;;;;;;;20.43;8.20;;;;;;;;;;5114472;27;20443;-72
2021/03/01 11:44:02;;;;;;;11.93;6.50;;;;;;;;;;5113793;27;20477;-71
2021/03/01 11:46:35;;;;;;;18.47;8.10;;;;;;;;;;5114514;27;20512;-71
2021/03/01 11:49:26;;;;;;;15.50;7.90;;;;;;;;;;5131013;27;20683;-71
2021/03/01 11:51:57;;;;;;;14.30;8.27;;;;;;;;;;5134219;27;20450;-71
2021/03/01 11:54:29;;;;;;;19.83;8.50;;;;;;;;;;5134780;27;20443;-71
2021/03/01 11:56:56;;;;;;;14.43;8.00;;;;;;;;;;5135139;27;21148;-71
2021/03/01 11:59:24;;;;;;;16.43;7.90;;;;;;;;;;5122952;27;20753;-70
2021/03/01 12:01:58;;;;;;;15.13;8.93;;;;;;;;;;5114166;27;21106;-70
2021/03/01 12:04:29;;;;;;;15.70;8.60;;;;;;;;;;5113234;27;20496;-70
2021/03/01 12:06:59;;;;;;;18.63;9.13;;;;;;;;;;5114741;27;20447;-70
2021/03/01 12:09:31;;;;;;;16.07;9.43;;;;;;;;;;5114494;27;20451;-71
2021/03/01 12:12:01;;;;;;;14.20;7.63;;;;;;;;;;5114562;27;20482;-70
2021/03/01 12:14:32;;;;;;;12.73;7.43;;;;;;;;;;5112977;27;20462;-72
2021/03/01 12:17:03;;;;;;;12.97;6.87;;;;;;;;;;5114298;27;20910;-71
2021/03/01 12:19:33;;;;;;;15.80;7.70;;;;;;;;;;5113293;27;20507;-70
2021/03/01 12:22:01;;;;;;;16.20;6.70;;;;;;;;;;5113469;27;20469;-71
2021/03/01 12:24:33;;;;;;;12.97;7.43;;;;;;;;;;5114379;27;21050;-70
2021/03/01 12:27:05;;;;;;;15.10;7.40;;;;;;;;;;5117179;27;20458;-72
2021/03/01 12:29:34;;;;;;;16.70;8.00;;;;;;;;;;5128699;27;21156;-72
2021/03/01 12:32:20;;;;;;;12.37;7.20;;;;;;;;;;5127197;27;20451;-70
2021/03/01 12:35:07;;;;;;;17.37;8.93;;;;;;;;;;5115558;27;20639;-70
2021/03/01 12:37:41;;;;;;;18.27;6.70;;;;;;;;;;5116956;27;20854;-69
2021/03/01 12:40:29;;;;;;;17.23;8.57;;;;;;;;;;5116624;27;20447;-71
2021/03/01 12:42:58;;;;;;;18.30;8.27;;;;;;;;;;5117247;27;20462;-71
2021/03/01 12:45:25;;;;;;;14.53;7.37;;;;;;;;;;5116990;27;20452;-70
2021/03/01 12:47:59;;;;;;;17.83;8.00;;;;;;;;;;5117668;27;20462;-70
2021/03/01 12:50:35;;;;;;;11.60;6.77;;;;;;;;;;5128318;27;20512;-70
2021/03/01 12:56:05;;;;;;;15.83;6.33;;;;;;;;;;5137771;27;20435;-70
2021/03/01 12:58:35;;;;;;;12.07;6.93;;;;;;;;;;5134613;27;20453;-69
2021/03/01 13:01:07;;;;;;;14.70;7.23;;;;;;;;;;5115847;27;20462;-70
2021/03/01 13:03:38;;;;;;;15.93;8.10;;;;;;;;;;5116501;27;20483;-71
2021/03/01 13:06:18;;;;;;;11.07;7.17;;;;;;;;;;5115935;27;20458;-71
2021/03/01 13:09:10;;;;;;;11.27;6.90;;;;;;;;;;5115978;27;20480;-71
2021/03/01 13:11:48;;;;;;;12.53;7.33;;;;;;;;;;5115883;27;20463;-71
2021/03/01 13:14:44;;;;;;;10.60;6.87;;;;;;;;;;5116583;27;20855;-70
2021/03/01 13:17:15;;;;;;;13.43;6.90;;;;;;;;;;5116998;27;20455;-72
2021/03/01 13:19:43;;;;;;;12.10;6.60;;;;;;;;;;5115775;27;20446;-71
2021/03/01 13:22:12;;;;;;;16.67;7.07;;;;;;;;;;5115582;27;20530;-71
2021/03/01 13:24:39;;;;;;;13.43;7.77;;;;;;;;;;5114921;27;20482;-71
2021/03/01 13:27:06;;;;;;;15.23;7.13;;;;;;;;;;5116935;27;20619;-71
2021/03/01 13:29:34;;;;;;;15.33;7.40;;;;;;;;;;5115576;27;20458;-71
2021/03/01 13:32:01;;;;;;;12.60;6.77;;;;;;;;;;5116094;27;21062;-70
2021/03/01 13:34:28;;;;;;;13.07;7.23;;;;;;;;;;5115217;27;20616;-70
2021/03/01 13:36:55;;;;;;;13.17;7.27;;;;;;;;;;5113055;27;20488;-70
2021/03/01 13:39:24;;;;;;;10.27;6.63;;;;;;;;;;5114419;27;20461;-71
2021/03/01 13:41:52;;;;;;;16.67;6.97;;;;;;;;;;5116175;27;20463;-70
2021/03/01 13:44:19;;;;;;;12.67;6.87;;;;;;;;;;5116443;27;20490;-70
2021/03/01 13:46:47;;;;;;;17.53;8.53;;;;;;;;;;5115562;27;20443;-70
2021/03/01 13:49:14;;;;;;;12.10;7.03;;;;;;;;;;5115846;27;20457;-72
2021/03/01 13:51:44;;;;;;;15.00;8.00;;;;;;;;;;5119769;27;20942;-70
2021/03/01 13:54:11;;;;;;;16.00;7.00;;;;;;;;;;5114936;27;20831;-70
2021/03/01 13:56:40;;;;;;;10.40;5.90;;;;;;;;;;5115534;27;20779;-71
2021/03/01 13:59:08;;;;;;;15.30;7.80;;;;;;;;;;5116605;27;20500;-70
2021/03/01 14:01:36;;;;;;;11.67;5.67;;;;;;;;;;5116388;27;20456;-70
2021/03/01 14:04:03;;;;;;;17.60;7.50;;;;;;;;;;5115138;27;20767;-71
2021/03/01 14:06:35;;;;;;;19.90;8.00;;;;;;;;;;5117606;27;20455;-70
2021/03/01 14:09:03;;;;;;;16.13;7.43;;;;;;;;;;5116590;27;20705;-70
2021/03/01 14:11:36;;;;;;;8.87;5.93;;;;;;;;;;5117294;27;20496;-70
2021/03/01 14:14:05;;;;;;;21.43;9.30;;;;;;;;;;5131238;27;20444;-70
2021/03/01 14:16:32;;;;;;;16.13;7.90;;;;;;;;;;5130317;27;20494;-70
2021/03/01 14:18:59;;;;;;;10.90;5.93;;;;;;;;;;5116773;27;20463;-70
2021/03/01 14:21:28;;;;;;;17.13;7.30;;;;;;;;;;5115824;27;20453;-70
2021/03/01 14:23:56;;;;;;;14.87;7.10;;;;;;;;;;5114240;27;20775;-71
2021/03/01 14:26:24;;;;;;;19.53;8.10;;;;;;;;;;5114266;27;20448;-70
2021/03/01 14:28:51;;;;;;;14.27;7.90;;;;;;;;;;5114797;27;20487;-71
2021/03/01 14:31:20;;;;;;;13.90;7.00;;;;;;;;;;5114307;27;20735;-70
2021/03/01 14:33:47;;;;;;;16.27;8.07;;;;;;;;;;5114017;27;20505;-71
2021/03/01 14:36:14;;;;;;;18.17;7.63;;;;;;;;;;5115900;27;20466;-70
2021/03/01 14:38:42;;;;;;;13.20;7.80;;;;;;;;;;5115627;27;20456;-70
2021/03/01 14:41:10;;;;;;;15.13;7.40;;;;;;;;;;5114970;27;20455;-70
2021/03/01 14:43:37;;;;;;;18.00;8.80;;;;;;;;;;5114701;27;20486;-70
2021/03/01 14:46:06;;;;;;;15.87;8.33;;;;;;;;;;5114825;27;20447;-71